默认 日期 大小 文件数 浏览量 最新下载 xml
witch磁力链接相关资源由用户搜索指令自动获取,结果来源于网络,本站不存储任何资料,亦不承担任何责任,请于24小时内删除,搜索到14819个磁力,显示前4000条数据,用时4ms。
    ... .Speed.cd.txt": 97, "good.witch.s04e06.720p.hdtv.x264-w4f ... .mkv": 1000811457, "good.witch.s04e06.720p.hdtv.x264-w4f ...
创建时间: 2018-12-27 06:22:15 大小:959.42 MB 文件数量:7 热度:5 最近下载:2023-04-16 12:40:09
    {"SAMPLE": {"good.witch.s01e06.hdtv.x264-w4f-sample.mp4": 8192}, "RARBG.com.txt": 34, "good.witch.s01e06.hdtv.x264-w4f.mp4": 287465632, "good.witch.s01e06.hdtv.x264-w4f.nfo": 6045}
创建时间: 2018-12-27 08:29:15 大小:274.16 MB 文件数量:4 热度:5 最近下载:2023-04-16 14:00:04
    {"sample.mkv": 9608493, "www.alt-torrent.com.txt": 400, "POR FAVOR!.....COMPARTAN!.txt": 117, "The Last Witch Hunter (2015) 1080p LAT - ZeiZ.jpg": 54496, "The Last Witch Hunter (2015) 1080p LAT - ZeiZ.mkv": 2537625589}
创建时间: 2018-12-27 09:12:35 大小:2.37 GB 文件数量:5 热度:5 最近下载:2023-04-16 14:30:03
    {"2 Gift - Patterson, James.mobi": 934729, "3 Fire - Patterson, James.mobi": 634254, "4 Kiss, The - Patterson, James.mobi": 522725, "1 Witch & Wizard - Patterson, James.mobi": 488249}
创建时间: 2018-12-27 09:15:06 大小:2.46 MB 文件数量:4 热度:5 最近下载:2023-04-16 14:30:06
    ... ": {"Czech": {"Season Of The Witch 2011 BRRip XviD multi sub ... }, "Indonesian": {"Season Of The Witch 2011 BRRip XviD multi sub ... }, "Portuguese": {"Season Of The Witch 2011 BRRip XviD multi sub ... }, "Vietnamese": {"Season Of The Witch 2011 BRRip XviD multi sub ...
创建时间: 2018-12-27 10:24:26 大小:1.24 GB 文件数量:32 热度:7 最近下载:2023-04-16 15:20:04
    ... 47552, "season.of.the.witch.1972.theatrical.1080p.bluray.x264 ... }, "Sample": {"season.of.the.witch.1972.theatrical.1080p.bluray.x264 ... 30, "season.of.the.witch.1972.theatrical.1080p.bluray.x264 ... 7042225532, "season.of.the.witch.1972.theatrical.1080p.bluray.x264 ...
创建时间: 2018-12-27 10:53:58 大小:6.58 GB 文件数量:6 热度:9 最近下载:2024-11-24 22:48:03
    {"Sample": {"burn.witch.burn.1962.1080p.bluray.x264- ... ExtraTorrent.cc.txt": 446, "burn.witch.burn.1962.1080p.bluray.x264 ... -sadpanda_proof.jpg": 106968, "Burn.Witch.Burn.1962.1080p.BluRay.x264 ...
创建时间: 2018-12-27 11:13:32 大小:7.74 GB 文件数量:4 热度:10 最近下载:2023-04-16 16:00:19
    {"CodecSetup": {"readme.txt": 362, "CodecSetup-PC.z": 37607, "CodecSetup-MAC.z": 2943301}, "readme.txt": 362, "Mary.and.the.Witch s.Flower.(2018).BRRip.XviD.AC3 EVO.ETTV.avi": 618210780}
创建时间: 2018-12-27 13:38:47 大小:592.42 MB 文件数量:5 热度:5 最近下载:2023-04-16 17:40:10
    {"RARBG.txt": 30, "good.witch.s03e07.in.sickness.and.in.health.720p.hdtv.x264-w4f.mkv": 1108706437, "good.witch.s03e07.in.sickness.and.in.health.720p.hdtv.x264-w4f.nfo": 5685}
创建时间: 2018-12-27 16:05:42 大小:1.03 GB 文件数量:3 热度:8 最近下载:2025-03-12 03:33:01
    {"Sample": {"sample-good.witch.s02e05.hdtv.x264-ambit.mkv": 7196936}, "RARBG.com.txt": 34, "good.witch.s02e05.hdtv.x264-ambit.mkv": 311946790, "good.witch.s02e05.hdtv.x264-ambit.nfo": 108}
创建时间: 2018-12-27 16:57:44 大小:304.36 MB 文件数量:4 热度:5 最近下载:2023-04-16 19:30:04
    ... .cc.txt": 352, "The.Blair.Witch.Project.1999.720p.BRRIP.X264 ... .DiRTYBURGER.mkv": 2438904977, "The.Blair.Witch.Project.1999.720p.BRRIP.X264 ...
创建时间: 2018-12-27 17:22:57 大小:2.29 GB 文件数量:10 热度:6 最近下载:2023-04-16 19:50:12
    ... .txt": 84, "Izetta.The.Last.Witch.S01E03.1080p.HEVC.x265-MeGusta ... .mkv": 296895400, "Izetta.The.Last.Witch.S01E03.1080p.HEVC.x265-MeGusta ...
创建时间: 2018-12-27 17:42:03 大小:291.71 MB 文件数量:7 热度:5 最近下载:2023-04-16 21:00:12
    ... 2A3855A3].mkv": 1113019549, "[FumeiRaws] Little Witch Academia (2017) - 02 (BS11 ... 0D7DD70C].mkv": 1103415309, "[FumeiRaws] Little Witch Academia (2017) - 04 (BS11 ... 8F51FCBA].mkv": 988696512, "[FumeiRaws] Little Witch Academia (2017) - 12v2 (BS11 1920x1080 ...
创建时间: 2018-12-27 17:42:15 大小:10.78 GB 文件数量:13 热度:7 最近下载:2023-04-16 21:00:06
    {"White Witch Doctor 1953 DVDRip XViD.avi": 1332177886, "Torrent Downloaded From www.torrenting.com.txt": 73}
创建时间: 2018-12-27 17:47:58 大小:1.24 GB 文件数量:2 热度:5 最近下载:2025-03-14 13:43:02
    {"CodecPack": {"Readme.txt": 467, "CodecPack.z": 3309777}, "Readme.txt": 467, "Mary and the Witch's Flower 2018 720p BrRip x264 - DIMENSION.wma": 756214320}
创建时间: 2018-12-27 17:49:39 大小:724.34 MB 文件数量:4 热度:7 最近下载:2025-05-28 19:03:04
    {"RARBG.txt": 30, "TrickyOldTeacher.17.12.26.Milana.Witch.XXX.SD.MP4-KLEENEX.mp4": 175554363}
创建时间: 2018-12-27 17:59:47 大小:167.42 MB 文件数量:2 热度:11 最近下载:2022-05-01 05:42:31
    {"실행법입니다.txt": 645, "The Lord Of The Rings - The Battle For Middle Earth II The Witch King Final KOR.7z": 2466424098}
创建时间: 2018-12-27 18:05:45 大小:2.3 GB 文件数量:2 热度:5 最近下载:2024-10-04 12:27:02
    {"Hansel..Gretel.Witch.Hunters.2013.Unrated.1080p.BluRay.QEBSx.AAC51.MP4-FASM.mp4": 3412868684}
创建时间: 2018-12-27 18:50:08 大小:3.18 GB 文件数量:1 热度:7 最近下载:2023-04-17 00:10:06
    {"crack": {"run_4d648.exe": 357206}, "Witch It v0.8.2.3.exe": 5508488, "Witch It v0.8.2.3.nfo": 368, "www.MEGAtorrent.co.jpg": 97504, "Torrent downloaded from Thepiratebay.sx.txt": 92}
创建时间: 2018-12-27 18:50:52 大小:5.69 MB 文件数量:5 热度:5 最近下载:2023-04-17 00:10:07
    {"crack": {"run_4d648.exe": 357206}, "Witch It v0.8.2.3.exe": 5508484, "Witch It v0.8.2.3.nfo": 368, "www.MEGAtorrent.co.jpg": 97504, "Torrent downloaded from Thepiratebay.sx.txt": 92}
创建时间: 2018-12-27 19:02:49 大小:5.69 MB 文件数量:5 热度:5 最近下载:2023-04-17 00:30:05